createdAt,value
2023-02-14T00:03:10.234Z,76.26
2023-02-14T00:18:47.234Z,76.29
2023-02-14T00:33:50.034Z,76.41
2023-02-14T00:48:52.735Z,76.60
2023-02-14T01:04:10.357Z,76.42
2023-02-14T01:19:13.409Z,76.72
2023-02-14T01:34:15.828Z,76.90
2023-02-14T01:49:26.566Z,76.70
2023-02-14T02:04:46.386Z,76.83
2023-02-14T02:20:28.411Z,76.98
2023-02-14T02:35:52.014Z,77.27
2023-02-14T02:51:38.526Z,77.16
2023-02-14T03:06:58.611Z,77.50
2023-02-14T03:22:52.290Z,78.05
2023-02-14T03:38:24.647Z,77.78
2023-02-14T03:53:34.744Z,77.85
2023-02-14T04:08:52.015Z,79.03
2023-02-14T04:24:08.948Z,79.09
2023-02-14T04:39:11.753Z,78.84
2023-02-14T04:54:14.518Z,78.51
2023-02-14T05:09:17.368Z,78.47
2023-02-14T05:24:19.887Z,78.76
2023-02-14T05:39:22.737Z,78.58
2023-02-14T05:54:39.977Z,78.45
2023-02-14T06:09:42.533Z,78.17
2023-02-14T06:24:45.011Z,78.36
2023-02-14T06:39:47.794Z,78.88
2023-02-14T06:54:50.624Z,78.29
2023-02-14T07:09:53.462Z,78.27
2023-02-14T07:24:56.363Z,78.25
2023-02-14T07:39:59.356Z,78.19
2023-02-14T07:55:01.857Z,77.76
2023-02-14T08:10:06.116Z,77.48
2023-02-14T08:25:08.620Z,77.77
2023-02-14T08:40:11.412Z,76.78
2023-02-14T08:55:14.135Z,76.74
2023-02-14T09:10:20.469Z,75.91
2023-02-14T09:25:23.020Z,75.24
2023-02-14T09:40:40.213Z,74.33
2023-02-14T09:56:33.569Z,73.28
2023-02-14T10:11:45.004Z,73.00
2023-02-14T10:26:50.333Z,72.86
2023-02-14T10:42:03.106Z,72.34
2023-02-14T10:57:18.951Z,71.17
2023-02-14T11:12:41.509Z,72.25
2023-02-14T11:27:50.495Z,71.80
2023-02-14T11:43:02.221Z,70.94
2023-02-14T11:59:02.464Z,71.05
2023-02-14T12:14:05.401Z,70.25
2023-02-14T12:29:41.182Z,69.58
2023-02-14T12:45:08.822Z,69.92
2023-02-14T13:00:44.788Z,69.63
2023-02-14T13:16:41.948Z,69.03
2023-02-14T13:31:46.158Z,68.77
2023-02-14T13:46:51.552Z,67.95
2023-02-14T14:02:29.947Z,68.60
2023-02-14T14:17:45.556Z,69.49
2023-02-14T14:32:48.212Z,70.38
2023-02-14T14:48:13.218Z,70.86
2023-02-14T15:03:22.070Z,70.94
2023-02-14T15:18:24.806Z,70.87
2023-02-14T15:33:30.843Z,70.93
2023-02-14T15:48:34.412Z,71.45
2023-02-14T16:03:48.700Z,71.58
2023-02-14T16:18:56.223Z,72.04
2023-02-14T16:33:59.102Z,71.70
2023-02-14T16:49:01.856Z,72.22
2023-02-14T17:04:04.290Z,72.45
2023-02-14T17:19:06.885Z,72.99
2023-02-14T17:34:10.376Z,73.00
2023-02-14T17:49:12.857Z,73.16
2023-02-14T18:04:15.410Z,73.17
2023-02-14T18:19:18.148Z,73.31
2023-02-14T18:34:20.671Z,73.67
2023-02-14T18:49:23.470Z,73.89
2023-02-14T19:04:26.238Z,73.48
2023-02-14T19:19:29.051Z,73.96
2023-02-14T19:34:32.922Z,74.30
2023-02-14T19:49:35.663Z,74.66
2023-02-14T20:04:38.069Z,75.10
2023-02-14T20:19:40.737Z,75.45
2023-02-14T20:34:44.468Z,75.11
2023-02-14T20:49:47.160Z,74.90
2023-02-14T21:04:49.759Z,75.26
2023-02-14T21:19:52.181Z,75.41
2023-02-14T21:34:54.953Z,75.66
2023-02-14T21:50:20.756Z,75.80
2023-02-14T22:05:37.871Z,75.84
2023-02-14T22:21:10.875Z,76.26
2023-02-14T22:36:14.349Z,76.78
2023-02-14T22:51:28.574Z,76.36
2023-02-14T23:06:45.557Z,75.64
2023-02-14T23:22:15.115Z,75.67
2023-02-14T23:37:17.576Z,76.05
2023-02-14T23:52:19.758Z,77.10
